Startpagina
METAR-TAF:

METAR-TAF

Vliegvelden :

Wolgograd, Rusland

breedte: 48-47N, lengte: 044-22E, hoogte: 145 m

Actueel weer

Dit bericht is 25 minuten geleden gemaakt, om 17:30 UTC
Wind 6 kt uit het westzuidwesten
Temperatuur 16°C
Vochtigheid 42%
Druk 1021 hPa
Zicht 10 km of meer
geen wolken onder 1500 m en geen cumulonimbus

METAR: URWW 251730Z 24003MPS CAVOK 16/03 Q1021 R24/010070 NOSIG

Tijdstip: 20:55 (17:55 UTC)

Verwachting

Dit bericht is 56 minuten geleden gemaakt, om 16:59 UTC
Verwachting geldig van 25 om 18 UTC tot 26 om 03 UTC
Wind 6 kt uit het noordwesten met uitschieters tot 16 kt
Zicht 10 km of meer
geen wolken onder 1500 m en geen cumulonimbus
Tijdelijke
van 25 om 18 UTC tot 26 om 03 UTC
Wind 6 kt uit het westen

TAF: URWW 251659Z 2518/2603 31003G08MPS CAVOK TEMPO 2518/2603 27003MPS

Waarnemingen en weersverwachtingen van meer dan 4000 vliegvelden (METAR en TAF).

De beschikbare stations zijn de gele en rode punten op de kaart.

Ga met uw muis naar het station om de naam te zien.

Klik dan om waarnemingen en weersverwachtingen te zien.

kaart wijzigen: klik op de groene knoppen met een zwart kruis om in te zoomen, op de groene knop met een streepje om uit te zoomen of op de groene pijlen voor aangrenzende kaarten.


METAR-TAF: